Time;durP1;ratioP1;P1;durP2;ratioP2;P2;SDS_P1;SDS_P2;PMS_P1;PMS_P2;Temp;Humidity;BMP_temperature;BMP_pressure;BME280_temperature;BME280_humidity;BME280_pressure;Samples;Min_cycle;Max_cycle;Signal;HPM_P1;HPM_P2
2023/11/06 00:02:53;;;;;;;0.80;0.40;;;;;;;9.89;100.00;96317.84;15272863;19;20908;-50
2023/11/06 00:08:18;;;;;;;1.55;0.40;;;;;;;9.87;100.00;96336.88;15282807;19;20021;-50
2023/11/06 00:13:45;;;;;;;0.90;0.50;;;;;;;9.84;100.00;96331.91;15275208;19;20018;-50
2023/11/06 00:19:10;;;;;;;1.42;0.50;;;;;;;9.80;100.00;96341.47;15282096;19;20523;-51
2023/11/06 00:24:36;;;;;;;1.00;0.30;;;;;;;9.76;100.00;96342.09;15278220;19;20479;-52
2023/11/06 00:30:03;;;;;;;1.15;0.43;;;;;;;9.72;100.00;96355.09;15283481;19;20030;-53
2023/11/06 00:35:29;;;;;;;1.42;0.40;;;;;;;9.70;100.00;96359.88;15281449;19;20006;-50
2023/11/06 00:40:55;;;;;;;1.23;0.40;;;;;;;9.74;100.00;96379.91;15279835;19;20077;-50
2023/11/06 00:46:22;;;;;;;0.80;0.50;;;;;;;9.77;100.00;96384.88;15273634;19;20437;-52
2023/11/06 00:51:47;;;;;;;2.83;0.40;;;;;;;9.76;100.00;96401.25;15280075;19;20018;-52
2023/11/06 00:57:12;;;;;;;0.80;0.30;;;;;;;9.69;100.00;96418.19;15274377;19;20507;-54
2023/11/06 01:02:40;;;;;;;0.68;0.50;;;;;;;9.66;100.00;96417.75;15277577;19;20090;-53
2023/11/06 01:08:05;;;;;;;0.88;0.30;;;;;;;9.59;100.00;96433.03;15280615;19;20014;-50
2023/11/06 01:13:30;;;;;;;2.33;0.65;;;;;;;9.54;100.00;96445.25;15278255;19;20014;-51
2023/11/06 01:18:57;;;;;;;1.27;0.40;;;;;;;9.50;100.00;96457.44;15272995;19;20087;-53
2023/11/06 01:24:22;;;;;;;0.95;0.40;;;;;;;9.47;100.00;96454.31;15269379;19;20024;-55
2023/11/06 01:29:48;;;;;;;1.83;0.60;;;;;;;9.44;100.00;96455.56;15276242;19;20043;-51
2023/11/06 01:35:19;;;;;;;0.70;0.35;;;;;;;9.40;100.00;96463.22;15274611;19;20791;-51
2023/11/06 01:40:44;;;;;;;2.77;0.50;;;;;;;9.32;100.00;96476.00;15274823;19;20017;-51
2023/11/06 01:46:10;;;;;;;1.80;0.70;;;;;;;9.32;100.00;96481.38;15273420;19;20079;-52
2023/11/06 01:51:42;;;;;;;1.13;0.40;;;;;;;9.29;100.00;96482.56;15271570;19;20426;-54
2023/11/06 01:57:08;;;;;;;1.73;0.50;;;;;;;9.29;100.00;96500.56;15274238;19;20014;-50
2023/11/06 02:02:33;;;;;;;1.48;0.43;;;;;;;9.30;100.00;96499.53;15266342;19;20496;-51
2023/11/06 02:08:01;;;;;;;1.65;0.50;;;;;;;9.34;100.00;96498.13;15282844;19;20018;-52
2023/11/06 02:13:27;;;;;;;1.40;0.50;;;;;;;9.38;100.00;96492.13;15291237;19;20452;-51
2023/11/06 02:18:52;;;;;;;1.65;0.52;;;;;;;9.44;100.00;96503.09;15274021;19;20018;-52
2023/11/06 02:24:20;;;;;;;1.90;0.60;;;;;;;9.45;100.00;96505.59;15267902;19;20378;-51
2023/11/06 02:29:46;;;;;;;1.52;0.47;;;;;;;9.46;100.00;96515.31;15273644;19;20015;-51
2023/11/06 02:35:11;;;;;;;1.10;0.40;;;;;;;9.43;100.00;96531.84;15265176;19;20022;-52
2023/11/06 02:40:38;;;;;;;2.15;0.50;;;;;;;9.33;100.00;96534.06;15270123;19;20382;-48
2023/11/06 02:46:04;;;;;;;1.00;0.50;;;;;;;9.24;100.00;96553.03;15262548;19;20423;-50
2023/11/06 02:51:28;;;;;;;2.15;0.50;;;;;;;9.22;100.00;96563.19;15268997;19;20034;-50
2023/11/06 02:56:56;;;;;;;2.88;0.70;;;;;;;9.12;100.00;96568.06;15267987;19;20018;-50
2023/11/06 03:02:21;;;;;;;1.50;0.52;;;;;;;9.01;100.00;96579.34;15261628;19;20015;-50
2023/11/06 03:07:46;;;;;;;1.75;0.47;;;;;;;8.90;100.00;96576.19;15270639;19;20720;-48
2023/11/06 03:13:13;;;;;;;1.25;0.50;;;;;;;8.86;100.00;96591.03;15264748;19;20544;-47
2023/11/06 03:18:40;;;;;;;1.45;0.50;;;;;;;8.76;100.00;96591.38;15287272;19;20074;-47
2023/11/06 03:24:04;;;;;;;1.92;0.70;;;;;;;8.69;100.00;96601.25;15290368;19;20020;-53
2023/11/06 03:29:32;;;;;;;1.90;0.55;;;;;;;8.66;100.00;96598.09;15299028;19;20014;-47
2023/11/06 03:35:00;;;;;;;2.38;0.60;;;;;;;8.63;100.00;96607.38;15293820;19;20042;-53
2023/11/06 03:40:26;;;;;;;3.75;0.63;;;;;;;8.64;100.00;96620.59;15295579;19;20423;-52
2023/11/06 03:45:53;;;;;;;1.98;0.60;;;;;;;8.63;100.00;96629.69;15293745;19;20011;-52
2023/11/06 03:51:18;;;;;;;1.63;0.50;;;;;;;8.66;100.00;96638.38;15296470;19;20021;-52
2023/11/06 03:56:42;;;;;;;2.83;0.70;;;;;;;8.69;100.00;96646.03;15288206;19;20025;-52
2023/11/06 04:02:10;;;;;;;1.30;0.45;;;;;;;8.74;100.00;96640.94;15292209;19;20488;-47
2023/11/06 04:07:35;;;;;;;2.17;0.70;;;;;;;8.81;100.00;96636.44;15291204;19;20021;-49
2023/11/06 04:13:01;;;;;;;1.83;0.70;;;;;;;8.89;100.00;96641.66;15288439;19;20081;-49
2023/11/06 04:18:28;;;;;;;2.03;0.60;;;;;;;9.00;100.00;96644.81;15296384;19;20377;-49
2023/11/06 04:23:54;;;;;;;1.77;0.68;;;;;;;9.08;100.00;96674.25;15291796;19;20043;-47
2023/11/06 04:29:18;;;;;;;1.80;0.60;;;;;;;9.17;100.00;96675.75;15282663;19;20043;-48
2023/11/06 04:34:45;;;;;;;1.08;0.45;;;;;;;9.24;100.00;96671.25;15276652;19;20082;-47
2023/11/06 04:40:11;;;;;;;1.75;0.60;;;;;;;9.24;100.00;96673.13;15280813;19;20109;-48
2023/11/06 04:45:37;;;;;;;2.72;0.50;;;;;;;9.25;100.00;96680.97;15274209;19;20018;-48
2023/11/06 04:51:04;;;;;;;3.25;0.80;;;;;;;9.32;100.00;96670.28;15279666;19;20083;-51
2023/11/06 04:56:29;;;;;;;2.70;0.70;;;;;;;9.34;100.00;96668.22;15276554;19;20014;-50
2023/11/06 05:01:53;;;;;;;1.63;0.60;;;;;;;9.28;100.00;96668.19;15271483;19;20019;-47
2023/11/06 05:07:27;;;;;;;1.52;0.70;;;;;;;9.23;100.00;96660.72;15271460;19;20043;-50
2023/11/06 05:12:53;;;;;;;2.95;0.60;;;;;;;9.19;100.00;96659.44;15274663;19;20525;-50
2023/11/06 05:18:17;;;;;;;3.03;0.50;;;;;;;9.15;100.00;96682.38;15279046;19;20014;-50
2023/11/06 05:23:46;;;;;;;2.20;0.60;;;;;;;9.18;100.00;96682.78;15272718;19;20017;-49
2023/11/06 05:29:11;;;;;;;1.85;0.60;;;;;;;9.26;100.00;96697.94;15279092;19;20035;-51
2023/11/06 05:34:38;;;;;;;1.90;0.60;;;;;;;9.32;100.00;96709.75;15266943;19;20018;-48
2023/11/06 05:40:08;;;;;;;2.30;0.70;;;;;;;9.27;100.00;96704.13;15276928;19;21309;-48
2023/11/06 05:45:34;;;;;;;2.07;0.70;;;;;;;9.19;100.00;96723.91;15271443;19;20021;-51
2023/11/06 05:50:59;;;;;;;4.07;0.70;;;;;;;9.17;100.00;96729.50;15275546;19;20025;-50
2023/11/06 05:56:26;;;;;;;1.48;0.70;;;;;;;9.18;100.00;96749.97;15272403;19;20027;-51
2023/11/06 06:01:52;;;;;;;1.98;0.80;;;;;;;9.22;100.00;96747.72;15273079;19;20113;-51
2023/11/06 06:07:17;;;;;;;5.25;0.85;;;;;;;9.24;100.00;96765.28;15267468;19;20010;-51
2023/11/06 06:12:46;;;;;;;1.60;0.47;;;;;;;9.26;100.00;96754.38;15270655;19;20466;-51
2023/11/06 06:18:12;;;;;;;2.55;0.70;;;;;;;9.22;100.00;96761.16;15274705;19;20014;-50
2023/11/06 06:23:38;;;;;;;2.85;0.70;;;;;;;9.20;100.00;96774.78;15268495;19;20398;-50
2023/11/06 06:29:06;;;;;;;2.05;0.60;;;;;;;9.28;100.00;96799.84;15270076;19;20023;-54
2023/11/06 06:34:30;;;;;;;2.00;0.50;;;;;;;9.36;100.00;96788.94;15268408;19;20021;-50
2023/11/06 06:40:00;;;;;;;3.80;0.80;;;;;;;9.42;100.00;96807.00;15268296;19;20027;-49
2023/11/06 06:45:28;;;;;;;2.97;0.52;;;;;;;9.49;100.00;96815.94;15266810;19;20504;-48
2023/11/06 06:50:53;;;;;;;0.77;0.40;;;;;;;9.55;100.00;96819.72;15270317;19;20022;-50
2023/11/06 06:56:19;;;;;;;1.50;0.50;;;;;;;9.63;100.00;96826.81;15267762;19;20020;-50
2023/11/06 07:01:47;;;;;;;2.20;0.50;;;;;;;9.75;100.00;96830.63;15271016;19;20045;-49
2023/11/06 07:07:12;;;;;;;2.00;0.50;;;;;;;9.83;100.00;96837.72;15267324;19;20390;-51
2023/11/06 07:12:43;;;;;;;4.63;0.70;;;;;;;9.89;100.00;96863.00;15263738;19;20025;-50
2023/11/06 07:18:11;;;;;;;1.90;0.60;;;;;;;9.91;100.00;96883.28;15271366;19;20014;-49
2023/11/06 07:23:35;;;;;;;1.23;0.60;;;;;;;9.93;100.00;96870.50;15266688;19;20018;-48
2023/11/06 07:29:00;;;;;;;1.67;0.50;;;;;;;9.94;100.00;96895.50;15270468;19;20105;-49
2023/11/06 07:34:28;;;;;;;1.50;0.52;;;;;;;9.93;100.00;96902.78;15267246;19;20022;-53
2023/11/06 07:39:54;;;;;;;1.13;0.45;;;;;;;9.96;100.00;96912.31;15269021;19;20041;-48
2023/11/06 07:45:19;;;;;;;1.73;0.50;;;;;;;10.05;100.00;96905.78;15258609;19;20011;-51
2023/11/06 07:50:48;;;;;;;1.13;0.40;;;;;;;10.18;100.00;96913.91;15270533;19;20015;-49
2023/11/06 07:56:16;;;;;;;3.35;0.70;;;;;;;10.32;100.00;96919.41;15263393;19;20425;-49
2023/11/06 08:01:41;;;;;;;0.80;0.30;;;;;;;10.41;100.00;96931.69;15265505;19;20031;-50
2023/11/06 08:07:10;;;;;;;2.28;0.63;;;;;;;10.51;100.00;96930.53;15278758;19;20040;-49
2023/11/06 08:12:35;;;;;;;1.70;0.57;;;;;;;10.65;100.00;96943.03;15279701;19;20019;-51
2023/11/06 08:17:59;;;;;;;0.50;0.30;;;;;;;10.79;100.00;96950.16;15277756;19;20020;-49
2023/11/06 08:23:27;;;;;;;1.98;0.70;;;;;;;10.95;100.00;96959.78;15276325;19;20023;-53
2023/11/06 08:28:52;;;;;;;1.45;0.55;;;;;;;11.04;100.00;96965.00;15281347;19;20362;-51
2023/11/06 08:34:17;;;;;;;1.58;0.70;;;;;;;11.09;100.00;96960.69;15277364;19;20015;-53
2023/11/06 08:39:45;;;;;;;1.30;0.45;;;;;;;11.08;100.00;96979.72;15280855;19;20496;-51
2023/11/06 08:45:11;;;;;;;3.45;0.68;;;;;;;11.07;100.00;96984.31;15272684;19;20089;-49
2023/11/06 08:50:35;;;;;;;3.58;0.80;;;;;;;11.06;100.00;96988.03;15272732;19;20086;-50
2023/11/06 08:56:03;;;;;;;2.33;0.77;;;;;;;11.10;100.00;97010.00;15275624;19;20018;-50
2023/11/06 09:01:28;;;;;;;1.80;0.65;;;;;;;11.16;100.00;97006.53;15278191;19;20031;-53
2023/11/06 09:06:53;;;;;;;2.90;0.73;;;;;;;11.24;100.00;97019.84;15274074;19;20023;-49
2023/11/06 09:12:20;;;;;;;4.95;0.80;;;;;;;11.29;100.00;97030.00;15275182;19;20035;-49
2023/11/06 09:17:45;;;;;;;2.67;0.63;;;;;;;11.33;100.00;97031.28;15277029;19;20510;-50
2023/11/06 09:23:09;;;;;;;3.65;1.10;;;;;;;11.41;100.00;97041.03;15270534;19;20006;-48
2023/11/06 09:28:37;;;;;;;3.53;1.05;;;;;;;11.39;100.00;97057.44;15278833;19;20017;-52
2023/11/06 09:34:02;;;;;;;3.28;0.85;;;;;;;11.43;100.00;97074.03;15274676;19;20029;-50
2023/11/06 09:39:28;;;;;;;5.13;1.15;;;;;;;11.62;100.00;97069.78;15276959;19;20022;-53
2023/11/06 09:44:57;;;;;;;5.75;1.20;;;;;;;11.70;100.00;97080.38;15271257;19;20033;-52
2023/11/06 09:50:24;;;;;;;2.97;0.85;;;;;;;11.60;100.00;97081.81;15277290;19;20229;-52
2023/11/06 09:55:50;;;;;;;4.22;1.00;;;;;;;11.54;100.00;97091.53;15268896;19;20039;-52
2023/11/06 10:01:18;;;;;;;4.38;1.00;;;;;;;11.66;100.00;97071.03;15275722;19;20601;-52
2023/11/06 10:06:44;;;;;;;4.13;1.10;;;;;;;11.82;100.00;97104.94;15273009;19;20536;-54
2023/11/06 10:12:20;;;;;;;5.70;1.00;;;;;;;11.85;100.00;97096.44;15269574;19;20098;-49
2023/11/06 10:17:48;;;;;;;2.33;0.80;;;;;;;11.90;100.00;97112.03;15275215;19;20433;-52
2023/11/06 10:23:14;;;;;;;4.82;0.88;;;;;;;11.92;100.00;97131.53;15270086;19;20015;-52
2023/11/06 10:28:38;;;;;;;3.25;1.00;;;;;;;11.88;100.00;97112.19;15270958;19;20361;-51
2023/11/06 10:34:27;;;;;;;3.33;0.90;;;;;;;12.04;100.00;97122.91;15271419;19;20025;-48
2023/11/06 10:40:00;;;;;;;2.63;1.00;;;;;;;12.14;100.00;97124.16;15273107;19;20711;-51
2023/11/06 10:45:29;;;;;;;2.88;0.80;;;;;;;12.31;100.00;97118.41;15105255;19;20014;-51
2023/11/06 10:50:56;;;;;;;2.63;0.85;;;;;;;12.38;100.00;97118.41;15272807;19;20702;-49
2023/11/06 10:56:23;;;;;;;3.95;1.00;;;;;;;12.39;100.00;97114.66;15265471;19;20017;-52
2023/11/06 11:01:48;;;;;;;3.58;0.90;;;;;;;12.50;100.00;97100.56;15269414;19;20547;-49
2023/11/06 11:07:16;;;;;;;4.28;1.00;;;;;;;12.51;100.00;97158.09;15268145;19;20016;-50
2023/11/06 11:12:42;;;;;;;2.95;0.95;;;;;;;12.53;100.00;97143.34;15268338;19;20014;-50
2023/11/06 11:18:09;;;;;;;2.05;0.60;;;;;;;12.50;100.00;97143.78;15270992;19;20086;-50
2023/11/06 11:23:52;;;;;;;3.53;0.90;;;;;;;12.39;100.00;97133.56;15264802;19;20760;-48
2023/11/06 11:29:19;;;;;;;4.00;1.05;;;;;;;12.32;100.00;97141.66;15262909;19;20089;-50
2023/11/06 11:34:44;;;;;;;2.83;0.90;;;;;;;12.35;100.00;97173.63;15267537;19;20011;-50
2023/11/06 11:40:13;;;;;;;2.83;1.00;;;;;;;12.31;100.00;97167.00;15275344;19;20020;-48
2023/11/06 11:45:39;;;;;;;3.08;0.95;;;;;;;12.33;100.00;97160.34;15279192;19;20019;-48
2023/11/06 11:51:05;;;;;;;4.07;0.90;;;;;;;12.35;100.00;97162.03;15285023;19;20053;-51
2023/11/06 11:57:08;;;;;;;2.13;0.90;;;;;;;12.40;100.00;97173.06;15277925;19;20010;-48
2023/11/06 12:02:37;;;;;;;3.28;1.05;;;;;;;12.37;100.00;97181.56;15274718;19;20097;-50
2023/11/06 12:08:02;;;;;;;3.15;0.82;;;;;;;12.62;100.00;97182.66;15277270;19;20025;-52
2023/11/06 12:13:29;;;;;;;1.75;0.77;;;;;;;12.88;100.00;97183.72;15278002;19;20025;-48
2023/11/06 12:18:58;;;;;;;2.92;1.00;;;;;;;13.07;100.00;97171.25;15283192;19;20082;-49
2023/11/06 12:24:23;;;;;;;2.47;0.85;;;;;;;13.21;100.00;97185.63;15278631;19;20025;-48
2023/11/06 12:29:48;;;;;;;4.95;1.10;;;;;;;13.29;100.00;97189.13;15281580;19;20018;-51
2023/11/06 12:35:19;;;;;;;3.88;1.00;;;;;;;13.26;100.00;97191.22;15272939;19;20022;-54
2023/11/06 12:40:50;;;;;;;3.17;0.90;;;;;;;13.18;100.00;97199.53;15282204;19;20375;-52
2023/11/06 12:46:15;;;;;;;6.77;1.00;;;;;;;12.88;100.00;97201.81;15274625;19;20010;-49
2023/11/06 12:51:42;;;;;;;4.15;0.95;;;;;;;12.69;100.00;97201.59;15277691;19;20346;-50
2023/11/06 12:57:10;;;;;;;3.10;0.90;;;;;;;12.81;100.00;97195.56;15276207;19;20014;-52
2023/11/06 13:02:37;;;;;;;5.05;1.00;;;;;;;12.86;100.00;97196.63;15278513;19;20020;-48
2023/11/06 13:08:06;;;;;;;3.28;0.82;;;;;;;12.72;100.00;97194.94;15271803;19;20420;-48
2023/11/06 13:13:31;;;;;;;4.55;1.00;;;;;;;12.42;100.00;97203.38;15269720;19;20110;-49
2023/11/06 13:18:56;;;;;;;4.97;1.20;;;;;;;12.40;100.00;97218.97;15279397;19;20018;-49
2023/11/06 13:24:23;;;;;;;3.67;1.10;;;;;;;12.51;100.00;97214.81;15272674;19;20014;-47
2023/11/06 13:29:48;;;;;;;3.42;0.88;;;;;;;12.47;100.00;97217.09;15273784;19;20450;-50
2023/11/06 13:35:13;;;;;;;3.65;0.85;;;;;;;12.56;100.00;97228.56;15272021;19;20367;-50
2023/11/06 13:40:43;;;;;;;2.72;1.00;;;;;;;12.56;100.00;97229.38;14761456;19;10000959;-51
2023/11/06 13:46:08;;;;;;;3.28;0.77;;;;;;;12.64;100.00;97237.31;15270587;19;20051;-49
2023/11/06 13:51:36;;;;;;;3.25;0.80;;;;;;;12.82;100.00;97251.28;15275829;19;20010;-49
2023/11/06 13:57:03;;;;;;;3.00;1.10;;;;;;;12.68;100.00;97247.72;15241081;19;20110;-47
2023/11/06 14:02:29;;;;;;;3.88;0.85;;;;;;;12.49;100.00;97239.34;15274349;19;20017;-51
2023/11/06 14:07:54;;;;;;;3.50;0.82;;;;;;;12.21;100.00;97252.97;15271498;19;20022;-48
2023/11/06 14:13:24;;;;;;;5.05;1.00;;;;;;;12.36;100.00;97258.22;15266696;19;20022;-50
2023/11/06 14:18:50;;;;;;;3.00;1.00;;;;;;;12.59;100.00;97264.13;15271589;19;20078;-50
2023/11/06 14:24:15;;;;;;;5.45;1.00;;;;;;;12.75;100.00;97253.97;15260083;19;20019;-47
2023/11/06 14:29:43;;;;;;;2.60;1.00;;;;;;;12.69;100.00;97252.09;15273477;19;20029;-49
2023/11/06 14:35:10;;;;;;;3.53;1.00;;;;;;;12.47;100.00;97252.22;15268182;19;20413;-52
2023/11/06 14:40:35;;;;;;;2.92;0.90;;;;;;;12.39;100.00;97241.59;15272573;19;20006;-51
2023/11/06 14:46:04;;;;;;;3.20;1.20;;;;;;;12.38;100.00;97261.53;15260456;19;20006;-48
2023/11/06 14:51:28;;;;;;;3.17;0.90;;;;;;;12.30;100.00;97262.53;15271888;19;20006;-48
2023/11/06 14:56:56;;;;;;;4.85;1.08;;;;;;;12.24;100.00;97255.22;15267763;19;20359;-49
2023/11/06 15:02:24;;;;;;;3.00;1.00;;;;;;;12.10;100.00;97257.91;15268924;19;20019;-48
2023/11/06 15:07:54;;;;;;;3.70;1.02;;;;;;;11.88;100.00;97265.19;15269871;19;20014;-47
2023/11/06 15:13:19;;;;;;;3.08;0.90;;;;;;;11.71;100.00;97253.88;15265938;19;20543;-50
2023/11/06 15:18:46;;;;;;;5.13;1.00;;;;;;;11.59;100.00;97256.28;15269568;19;20472;-48
2023/11/06 15:24:12;;;;;;;3.35;1.00;;;;;;;11.51;100.00;97253.75;15266559;19;20022;-52
2023/11/06 15:29:37;;;;;;;3.85;1.17;;;;;;;11.38;100.00;97255.31;15271110;19;20015;-48
2023/11/06 15:35:05;;;;;;;3.42;1.00;;;;;;;11.27;100.00;97252.31;15264847;19;20094;-47
2023/11/06 15:40:29;;;;;;;3.63;1.00;;;;;;;11.11;100.00;97256.94;15269067;19;20022;-51
2023/11/06 15:45:54;;;;;;;4.25;1.10;;;;;;;10.97;100.00;97253.31;15259093;19;20018;-51
2023/11/06 15:51:31;;;;;;;3.88;1.10;;;;;;;10.88;100.00;97259.81;15261965;19;20035;-49
2023/11/06 15:56:56;;;;;;;3.70;1.00;;;;;;;10.82;100.00;97269.50;15256759;19;20014;-48
2023/11/06 16:02:21;;;;;;;3.75;1.60;;;;;;;10.73;100.00;97276.91;15255979;19;20018;-50
2023/11/06 16:07:48;;;;;;;4.30;1.20;;;;;;;10.70;100.00;97276.44;15260045;19;20055;-47
2023/11/06 16:13:14;;;;;;;3.85;1.33;;;;;;;10.67;100.00;97272.25;15263964;19;20010;-50
2023/11/06 16:18:39;;;;;;;5.03;1.90;;;;;;;10.62;100.00;97270.13;15258313;19;20094;-47
2023/11/06 16:24:09;;;;;;;3.55;1.55;;;;;;;10.60;100.00;97292.91;15263432;19;20081;-49
2023/11/06 16:29:36;;;;;;;3.42;1.73;;;;;;;10.57;100.00;97293.28;15280429;19;20086;-50
2023/11/06 16:35:03;;;;;;;4.90;1.20;;;;;;;10.50;100.00;97303.97;15276265;19;20014;-51
2023/11/06 16:40:31;;;;;;;3.50;1.30;;;;;;;10.45;100.00;97299.16;15277991;19;20017;-50
2023/11/06 16:45:56;;;;;;;3.60;1.10;;;;;;;10.48;100.00;97308.69;15274718;19;20034;-51
2023/11/06 16:51:21;;;;;;;2.97;0.93;;;;;;;10.47;100.00;97291.72;15271969;19;20082;-47
2023/11/06 16:56:49;;;;;;;3.78;1.30;;;;;;;10.47;100.00;97307.88;15275161;19;20032;-49
2023/11/06 17:02:15;;;;;;;3.83;1.50;;;;;;;10.44;100.00;97297.47;15276355;19;20044;-50
2023/11/06 17:07:42;;;;;;;2.65;1.05;;;;;;;10.39;100.00;97313.38;15271467;19;20280;-48
2023/11/06 17:13:10;;;;;;;2.00;0.98;;;;;;;10.35;100.00;97300.44;15274421;19;20025;-50
2023/11/06 17:18:35;;;;;;;3.22;1.10;;;;;;;10.30;100.00;97306.38;15278024;19;20010;-47
2023/11/06 17:24:03;;;;;;;2.03;1.20;;;;;;;10.28;100.00;97319.19;15269486;19;20043;-43
2023/11/06 17:29:33;;;;;;;2.67;0.85;;;;;;;10.21;100.00;97324.50;15269703;19;20600;-45
2023/11/06 17:34:59;;;;;;;1.88;0.60;;;;;;;10.14;100.00;97329.78;15268776;19;20555;-45
2023/11/06 17:40:23;;;;;;;2.08;0.70;;;;;;;10.11;100.00;97327.44;15275097;19;20020;-45
2023/11/06 17:45:52;;;;;;;2.42;0.70;;;;;;;10.09;100.00;97332.19;15244826;19;20039;-44
2023/11/06 17:51:18;;;;;;;2.40;0.57;;;;;;;10.09;100.00;97339.44;15274468;19;20018;-44
2023/11/06 17:56:42;;;;;;;1.60;0.60;;;;;;;10.08;100.00;97340.44;15264926;19;20355;-46
2023/11/06 18:02:10;;;;;;;1.83;0.60;;;;;;;10.03;100.00;97344.50;15272277;19;20017;-47
2023/11/06 18:07:34;;;;;;;1.85;0.57;;;;;;;10.00;100.00;97350.25;15267066;19;20022;-48
2023/11/06 18:12:59;;;;;;;1.80;0.60;;;;;;;9.95;100.00;97346.44;15267745;19;20018;-45
2023/11/06 18:18:26;;;;;;;1.73;0.60;;;;;;;9.87;100.00;97345.53;15273283;19;20021;-47
2023/11/06 18:23:51;;;;;;;1.25;0.52;;;;;;;9.84;100.00;97353.13;15269850;19;20027;-45
2023/11/06 18:29:15;;;;;;;1.42;0.50;;;;;;;9.73;100.00;97359.78;15263191;19;20089;-46
2023/11/06 18:34:43;;;;;;;1.50;0.70;;;;;;;9.66;100.00;97356.97;15266606;19;20725;-46
2023/11/06 18:40:09;;;;;;;2.13;0.55;;;;;;;9.65;100.00;97363.38;15271624;19;20016;-48
2023/11/06 18:45:35;;;;;;;1.33;0.60;;;;;;;9.64;100.00;97367.06;15265243;19;20346;-43
2023/11/06 18:51:03;;;;;;;1.13;0.60;;;;;;;9.64;100.00;97371.63;15262903;19;20017;-45
2023/11/06 18:56:29;;;;;;;2.92;0.60;;;;;;;9.62;100.00;97379.88;15263478;19;20404;-48
2023/11/06 19:01:54;;;;;;;2.63;0.50;;;;;;;9.62;100.00;97379.03;15264530;19;20082;-46
2023/11/06 19:07:22;;;;;;;1.45;0.50;;;;;;;9.65;100.00;97386.75;15262699;19;20021;-44
2023/11/06 19:12:47;;;;;;;1.50;0.40;;;;;;;9.71;100.00;97397.63;15267513;19;20065;-46
2023/11/06 19:18:13;;;;;;;0.52;0.32;;;;;;;9.69;100.00;97391.59;15262407;19;20014;-44
2023/11/06 19:23:40;;;;;;;0.82;0.30;;;;;;;9.62;100.00;97414.00;15265907;19;20022;-48
2023/11/06 19:29:08;;;;;;;0.77;0.25;;;;;;;9.50;100.00;97419.78;15263882;19;20011;-44
2023/11/06 19:34:33;;;;;;;0.80;0.30;;;;;;;9.47;100.00;97427.38;15257646;19;20011;-47
2023/11/06 19:40:05;;;;;;;2.17;0.32;;;;;;;9.39;100.00;97436.34;15257736;19;20022;-47
2023/11/06 19:45:32;;;;;;;0.47;0.30;;;;;;;9.37;100.00;97446.44;15256526;19;20021;-47
2023/11/06 19:50:59;;;;;;;0.40;0.40;;;;;;;9.33;100.00;97450.50;15261698;19;20743;-50
2023/11/06 19:56:26;;;;;;;0.90;0.70;;;;;;;9.28;100.00;97463.63;15256070;19;20006;-47
2023/11/06 20:01:58;;;;;;;1.70;0.70;;;;;;;9.25;100.00;97473.72;15279729;19;20026;-47
2023/11/06 20:07:25;;;;;;;0.60;0.52;;;;;;;9.29;100.00;97465.31;15276732;19;20035;-48
2023/11/06 20:12:53;;;;;;;1.88;0.50;;;;;;;9.31;100.00;97474.84;15275210;19;20232;-48
2023/11/06 20:18:19;;;;;;;0.68;0.32;;;;;;;9.40;100.00;97472.97;15279904;19;20047;-48
2023/11/06 20:23:44;;;;;;;0.88;0.40;;;;;;;9.49;100.00;97471.06;15276217;19;20468;-47
2023/11/06 20:29:12;;;;;;;1.00;0.32;;;;;;;9.66;100.00;97466.41;15276322;19;20022;-48
2023/11/06 20:34:37;;;;;;;2.67;0.30;;;;;;;9.61;100.00;97472.34;15276164;19;20030;-48
2023/11/06 20:40:02;;;;;;;0.20;0.20;;;;;;;9.77;100.00;97471.38;15275450;19;20433;-46
2023/11/06 20:45:30;;;;;;;0.63;0.30;;;;;;;9.75;100.00;97484.16;15272569;19;20465;-47
2023/11/06 20:50:55;;;;;;;0.32;0.20;;;;;;;9.66;100.00;97504.88;15277740;19;20035;-48
2023/11/06 20:56:20;;;;;;;0.50;0.40;;;;;;;9.65;100.00;97491.63;15273901;19;20020;-49
2023/11/06 21:01:48;;;;;;;0.20;0.20;;;;;;;9.62;100.00;97505.41;15273770;19;20070;-50
2023/11/06 21:07:13;;;;;;;0.60;0.30;;;;;;;9.58;100.00;97517.56;15272850;19;20014;-51
2023/11/06 21:12:38;;;;;;;0.32;0.20;;;;;;;9.50;100.00;97521.97;15269169;19;20078;-46
2023/11/06 21:18:15;;;;;;;2.45;0.30;;;;;;;9.48;100.00;97540.13;15279327;19;20019;-48
2023/11/06 21:23:40;;;;;;;0.30;0.30;;;;;;;9.37;100.00;97549.44;15274524;19;20018;-47
2023/11/06 21:29:06;;;;;;;0.85;0.30;;;;;;;9.29;100.00;97552.13;15273880;19;20021;-52
2023/11/06 21:34:33;;;;;;;0.85;0.40;;;;;;;9.25;100.00;97566.94;15271496;19;20018;-50
2023/11/06 21:39:58;;;;;;;0.85;0.20;;;;;;;9.16;100.00;97571.50;15276756;19;20026;-48
2023/11/06 21:45:23;;;;;;;0.95;0.30;;;;;;;9.05;100.00;97571.88;15268048;19;20018;-50
2023/11/06 21:50:51;;;;;;;0.20;0.20;;;;;;;8.96;100.00;97572.91;15275456;19;20088;-48
2023/11/06 21:56:15;;;;;;;0.95;0.30;;;;;;;8.92;100.00;97591.22;15268059;19;20011;-50
2023/11/06 22:01:40;;;;;;;0.73;0.32;;;;;;;8.93;100.00;97591.06;15273191;19;20021;-50
2023/11/06 22:07:07;;;;;;;0.38;0.20;;;;;;;8.96;100.00;97594.41;15266910;19;20026;-49
2023/11/06 22:12:32;;;;;;;0.88;0.30;;;;;;;8.90;100.00;97591.38;15268988;19;20027;-48
2023/11/06 22:18:04;;;;;;;0.88;0.30;;;;;;;8.86;100.00;97598.13;15269886;19;20026;-52
2023/11/06 22:23:31;;;;;;;0.83;0.40;;;;;;;8.82;100.00;97599.47;15263740;19;20564;-48
2023/11/06 22:28:56;;;;;;;1.63;0.30;;;;;;;8.75;100.00;97606.53;15270762;19;20498;-48
2023/11/06 22:34:21;;;;;;;1.13;0.30;;;;;;;8.74;100.00;97607.53;15268972;19;20025;-48
2023/11/06 22:39:50;;;;;;;0.85;0.30;;;;;;;8.73;100.00;97612.06;15269526;19;20615;-47
2023/11/06 22:45:16;;;;;;;1.23;0.43;;;;;;;8.66;100.00;97620.97;15263825;19;20026;-51
2023/11/06 22:50:40;;;;;;;0.60;0.30;;;;;;;8.50;100.00;97630.72;15272555;19;20039;-47
2023/11/06 22:56:08;;;;;;;2.22;0.40;;;;;;;8.36;100.00;97634.03;15293086;19;20018;-49
2023/11/06 23:01:33;;;;;;;0.52;0.40;;;;;;;8.25;100.00;97641.41;15272451;19;20024;-49
2023/11/06 23:06:59;;;;;;;3.13;0.40;;;;;;;8.22;100.00;97641.72;15265747;19;20034;-46
2023/11/06 23:12:26;;;;;;;0.82;0.40;;;;;;;8.24;100.00;97628.97;15270615;19;20025;-50
2023/11/06 23:17:51;;;;;;;1.25;0.40;;;;;;;8.26;100.00;97632.34;15261000;19;20022;-46
2023/11/06 23:23:17;;;;;;;0.88;0.28;;;;;;;8.30;100.00;97636.34;15267710;19;20368;-51
2023/11/06 23:28:45;;;;;;;1.33;0.30;;;;;;;8.43;100.00;97640.38;15266599;19;20523;-46
2023/11/06 23:34:13;;;;;;;2.00;0.40;;;;;;;8.49;100.00;97647.81;15269232;19;20019;-49
2023/11/06 23:39:38;;;;;;;1.30;0.30;;;;;;;8.54;100.00;97653.50;15282928;19;20043;-48
2023/11/06 23:45:07;;;;;;;1.83;0.43;;;;;;;8.62;100.00;97652.69;15279528;19;20015;-46
2023/11/06 23:50:32;;;;;;;1.75;0.50;;;;;;;8.66;100.00;97667.47;15271550;19;20531;-45
2023/11/06 23:55:58;;;;;;;0.90;0.40;;;;;;;8.69;100.00;97671.66;15277029;19;20022;-51
